Time;durP1;ratioP1;P1;durP2;ratioP2;P2;SDS_P1;SDS_P2;PMS_P1;PMS_P2;Temp;Humidity;BMP_temperature;BMP_pressure;BME280_temperature;BME280_humidity;BME280_pressure;Samples;Min_cycle;Max_cycle;Signal;HPM_P1;HPM_P2
2022/03/31 00:00:34;;;;;;;21.50;13.30;;;8.80;30.00;;;;;;4994069;28;20389;-76
2022/03/31 00:03:01;;;;;;;25.33;13.73;;;8.80;30.30;;;;;;4993540;28;20398;-75
2022/03/31 00:05:27;;;;;;;25.50;14.50;;;8.80;30.60;;;;;;4976290;28;20542;-76
2022/03/31 00:07:55;;;;;;;24.38;13.88;;;8.60;31.20;;;;;;4975917;28;20430;-75
2022/03/31 00:10:26;;;;;;;24.92;13.48;;;8.40;31.90;;;;;;4993695;28;20532;-76
2022/03/31 00:12:53;;;;;;;24.85;14.32;;;8.60;31.90;;;;;;4975471;28;20407;-76
2022/03/31 00:15:18;;;;;;;24.20;13.77;;;8.60;31.40;;;;;;4993764;28;20441;-76
2022/03/31 00:17:44;;;;;;;19.37;13.17;;;8.60;31.30;;;;;;4993110;28;20382;-76
2022/03/31 00:20:11;;;;;;;21.42;13.48;;;8.70;30.60;;;;;;4993344;28;20742;-76
2022/03/31 00:22:37;;;;;;;24.07;14.30;;;8.70;30.20;;;;;;4993165;28;20391;-76
2022/03/31 00:25:05;;;;;;;23.35;13.63;;;8.70;30.80;;;;;;4993454;28;20383;-75
2022/03/31 00:27:30;;;;;;;21.17;13.60;;;8.60;31.10;;;;;;4993375;28;20390;-76
2022/03/31 00:29:56;;;;;;;22.20;13.97;;;8.60;30.60;;;;;;4978021;28;20409;-75
2022/03/31 00:32:22;;;;;;;23.80;15.00;;;8.50;31.30;;;;;;4998490;28;20450;-76
2022/03/31 00:34:48;;;;;;;21.02;14.38;;;8.50;31.80;;;;;;4994608;28;20391;-76
2022/03/31 00:37:13;;;;;;;24.85;13.77;;;8.40;32.00;;;;;;4993312;28;20743;-76
2022/03/31 00:39:39;;;;;;;29.95;14.07;;;8.70;30.70;;;;;;4993371;28;20391;-76
2022/03/31 00:42:06;;;;;;;22.35;13.80;;;8.80;30.90;;;;;;4993759;28;20471;-76
2022/03/31 00:44:32;;;;;;;23.52;14.40;;;8.70;30.60;;;;;;4997894;28;20382;-76
2022/03/31 00:46:57;;;;;;;23.30;14.53;;;8.80;30.60;;;;;;4998385;28;20421;-76
2022/03/31 00:49:25;;;;;;;21.35;14.23;;;8.70;30.90;;;;;;4999136;28;20390;-76
2022/03/31 00:51:53;;;;;;;22.58;13.82;;;8.70;30.80;;;;;;4997894;28;20399;-76
2022/03/31 00:54:22;;;;;;;22.33;13.60;;;8.50;31.50;;;;;;4995911;28;20433;-75
2022/03/31 00:56:50;;;;;;;19.73;13.77;;;8.70;31.00;;;;;;4993982;28;20389;-75
2022/03/31 00:59:17;;;;;;;27.88;14.50;;;8.70;30.40;;;;;;4992587;28;20386;-75
2022/03/31 01:01:45;;;;;;;29.03;15.13;;;8.50;31.10;;;;;;4992549;28;20522;-76
2022/03/31 01:04:11;;;;;;;35.57;16.20;;;8.40;31.80;;;;;;4975059;28;20402;-76
2022/03/31 01:06:37;;;;;;;21.58;14.20;;;8.30;32.90;;;;;;4992766;28;20391;-76
2022/03/31 01:09:04;;;;;;;22.63;14.73;;;8.60;31.00;;;;;;4992812;28;20464;-76
2022/03/31 01:11:31;;;;;;;23.98;14.70;;;8.50;31.20;;;;;;4993300;28;20405;-76
2022/03/31 01:13:57;;;;;;;26.23;14.88;;;8.40;32.40;;;;;;4994475;28;20445;-75
2022/03/31 01:16:23;;;;;;;26.77;14.40;;;8.30;32.40;;;;;;4994571;28;20477;-75
2022/03/31 01:18:51;;;;;;;25.27;14.73;;;8.30;33.00;;;;;;4994585;28;20410;-75
2022/03/31 01:21:17;;;;;;;26.65;15.25;;;8.40;32.10;;;;;;4992114;28;20386;-74
2022/03/31 01:23:44;;;;;;;24.05;14.75;;;8.40;32.50;;;;;;4974732;28;20381;-74
2022/03/31 01:26:10;;;;;;;25.57;14.93;;;8.30;33.00;;;;;;4975002;28;20582;-75
2022/03/31 01:28:41;;;;;;;22.52;14.57;;;8.50;31.80;;;;;;4992036;28;20936;-75
2022/03/31 01:31:08;;;;;;;26.40;14.73;;;8.30;32.00;;;;;;4992229;28;20501;-75
2022/03/31 01:33:34;;;;;;;27.90;14.00;;;8.50;31.80;;;;;;4991773;28;20402;-75
2022/03/31 01:36:01;;;;;;;22.47;14.00;;;8.50;31.60;;;;;;4991924;28;20410;-75
2022/03/31 01:38:27;;;;;;;24.02;14.50;;;8.70;30.60;;;;;;4994289;28;20398;-75
2022/03/31 01:40:53;;;;;;;22.73;13.00;;;8.60;30.60;;;;;;4991952;28;20545;-75
2022/03/31 01:43:20;;;;;;;24.13;15.18;;;8.70;30.40;;;;;;4993447;28;20469;-75
2022/03/31 01:45:49;;;;;;;26.88;14.95;;;8.60;30.40;;;;;;4976148;28;20417;-76
2022/03/31 01:48:16;;;;;;;25.80;14.35;;;8.60;30.60;;;;;;4974562;28;20393;-75
2022/03/31 01:50:42;;;;;;;25.92;14.35;;;8.50;30.80;;;;;;4991972;28;20793;-75
2022/03/31 01:53:07;;;;;;;24.55;14.93;;;8.50;31.20;;;;;;4994027;28;20425;-75
2022/03/31 01:55:33;;;;;;;26.30;14.57;;;8.40;31.30;;;;;;4993529;28;20386;-76
2022/03/31 01:57:59;;;;;;;28.47;15.70;;;8.40;31.60;;;;;;4992545;28;20382;-76
2022/03/31 02:00:24;;;;;;;22.47;15.20;;;8.30;32.20;;;;;;4992513;28;20382;-76
2022/03/31 02:02:50;;;;;;;24.07;15.20;;;8.20;32.70;;;;;;4991947;28;20390;-76
2022/03/31 02:05:15;;;;;;;26.43;15.37;;;8.30;32.90;;;;;;4992816;28;20827;-76
2022/03/31 02:07:41;;;;;;;28.87;15.00;;;8.30;32.80;;;;;;4993778;28;20423;-76
2022/03/31 02:10:11;;;;;;;26.00;15.37;;;8.30;32.90;;;;;;4975998;28;20399;-75
2022/03/31 02:12:37;;;;;;;24.90;15.48;;;8.20;34.30;;;;;;4992503;28;20410;-75
2022/03/31 02:15:04;;;;;;;26.70;17.45;;;8.10;34.60;;;;;;4993978;28;20794;-75
2022/03/31 02:17:30;;;;;;;26.67;16.52;;;7.90;36.80;;;;;;4993762;28;20390;-75
2022/03/31 02:19:56;;;;;;;29.80;17.00;;;7.90;37.60;;;;;;4993184;28;20770;-76
2022/03/31 02:22:22;;;;;;;26.17;16.40;;;7.90;38.80;;;;;;4993696;28;20474;-75
2022/03/31 02:24:48;;;;;;;26.92;16.55;;;7.90;39.40;;;;;;4993901;28;20478;-75
2022/03/31 02:27:14;;;;;;;31.08;16.58;;;7.70;40.20;;;;;;4994362;28;20756;-75
2022/03/31 02:29:39;;;;;;;27.88;17.50;;;7.90;40.20;;;;;;4995016;28;20531;-75
2022/03/31 02:32:08;;;;;;;28.55;17.05;;;7.80;40.40;;;;;;4993773;28;20391;-75
2022/03/31 02:34:35;;;;;;;29.25;18.10;;;7.80;41.40;;;;;;4977798;28;20395;-75
2022/03/31 02:37:02;;;;;;;25.75;17.50;;;7.80;41.70;;;;;;4996102;28;20375;-75
2022/03/31 02:39:29;;;;;;;33.85;18.50;;;7.70;43.70;;;;;;4977199;28;20391;-75
2022/03/31 02:41:57;;;;;;;31.27;19.80;;;7.80;44.60;;;;;;4977600;28;20774;-76
2022/03/31 02:44:23;;;;;;;35.00;18.98;;;7.80;46.00;;;;;;4996260;28;20483;-76
2022/03/31 02:46:49;;;;;;;34.22;21.58;;;7.90;46.30;;;;;;4979323;28;20378;-75
2022/03/31 02:49:15;;;;;;;30.90;21.10;;;7.80;49.30;;;;;;4995490;28;20390;-75
2022/03/31 02:51:41;;;;;;;31.58;20.35;;;7.70;50.70;;;;;;4994587;28;20807;-75
2022/03/31 02:56:52;;;;;;;33.15;20.75;;;7.90;52.60;;;;;;4996829;28;20415;-75
2022/03/31 02:59:18;;;;;;;35.35;22.25;;;7.80;53.50;;;;;;4996818;28;20751;-75
2022/03/31 03:01:43;;;;;;;36.93;22.27;;;7.80;55.70;;;;;;4996068;28;20478;-75
2022/03/31 03:04:10;;;;;;;32.90;22.37;;;7.80;57.70;;;;;;4996287;28;20386;-75
2022/03/31 03:06:36;;;;;;;39.58;23.20;;;7.80;57.40;;;;;;4996469;28;20391;-75
2022/03/31 03:09:03;;;;;;;36.17;23.58;;;7.70;59.80;;;;;;4996672;28;20773;-75
2022/03/31 03:11:29;;;;;;;41.17;23.63;;;7.70;60.10;;;;;;4998427;28;20394;-74
2022/03/31 03:13:55;;;;;;;40.15;24.25;;;7.80;60.60;;;;;;5000916;28;20410;-75
2022/03/31 03:16:21;;;;;;;39.78;25.42;;;7.60;63.00;;;;;;4998751;28;20513;-75
2022/03/31 03:18:46;;;;;;;38.90;24.60;;;7.70;63.50;;;;;;4981465;28;20821;-74
2022/03/31 03:21:12;;;;;;;41.87;24.77;;;7.60;65.10;;;;;;4980507;28;20390;-74
2022/03/31 03:23:39;;;;;;;36.73;23.80;;;7.80;64.70;;;;;;4994944;28;20394;-75
2022/03/31 03:26:06;;;;;;;41.80;25.25;;;7.90;61.80;;;;;;4995030;28;20400;-75
2022/03/31 03:28:35;;;;;;;46.08;26.90;;;8.00;61.70;;;;;;4977682;28;20497;-75
2022/03/31 03:31:03;;;;;;;44.20;27.20;;;7.80;62.80;;;;;;4994369;28;20383;-74
2022/03/31 03:33:29;;;;;;;47.80;28.30;;;7.90;63.00;;;;;;4994752;28;20413;-75
2022/03/31 03:35:55;;;;;;;43.85;26.15;;;7.70;64.30;;;;;;4995331;28;20390;-74
2022/03/31 03:38:21;;;;;;;49.30;28.52;;;7.70;65.80;;;;;;4995135;28;20422;-76
2022/03/31 03:40:47;;;;;;;42.58;26.08;;;7.70;65.60;;;;;;4995131;28;20426;-76
2022/03/31 03:43:12;;;;;;;45.47;27.13;;;7.80;68.20;;;;;;4997110;28;20383;-75
2022/03/31 03:45:38;;;;;;;44.00;27.02;;;7.70;67.50;;;;;;4998567;28;20399;-76
2022/03/31 03:48:06;;;;;;;47.15;27.50;;;7.80;67.70;;;;;;4999591;28;20402;-76
2022/03/31 03:50:36;;;;;;;46.35;27.92;;;7.90;69.90;;;;;;4995968;28;20390;-76
2022/03/31 03:53:03;;;;;;;45.72;27.05;;;7.90;66.30;;;;;;4998589;28;20499;-76
2022/03/31 03:55:34;;;;;;;46.92;27.35;;;7.90;64.60;;;;;;4998582;28;20387;-75
2022/03/31 03:58:00;;;;;;;47.92;27.10;;;7.80;65.50;;;;;;4993918;28;20471;-76
2022/03/31 04:00:26;;;;;;;46.93;27.20;;;7.80;67.80;;;;;;4994246;28;20476;-76
2022/03/31 04:02:52;;;;;;;46.35;26.45;;;7.80;69.30;;;;;;4993707;28;20486;-76
2022/03/31 04:05:17;;;;;;;46.00;27.03;;;7.70;68.70;;;;;;4993437;28;20422;-76
2022/03/31 04:07:43;;;;;;;49.73;26.60;;;7.70;68.20;;;;;;4993987;28;20418;-76
2022/03/31 04:10:10;;;;;;;50.88;29.33;;;7.70;72.00;;;;;;4994042;28;20449;-76
2022/03/31 04:12:36;;;;;;;46.83;27.85;;;7.60;73.40;;;;;;4993665;28;20491;-75
2022/03/31 04:15:03;;;;;;;48.58;28.27;;;7.60;73.80;;;;;;4976682;28;20449;-75
2022/03/31 04:17:28;;;;;;;49.25;28.45;;;7.70;74.80;;;;;;4994278;28;20390;-75
2022/03/31 04:19:54;;;;;;;50.23;28.27;;;7.60;74.10;;;;;;4993628;28;20804;-75
2022/03/31 04:22:21;;;;;;;46.78;25.83;;;7.60;74.10;;;;;;4993199;28;20382;-75
2022/03/31 04:24:47;;;;;;;49.63;27.70;;;7.70;73.00;;;;;;4993240;28;20473;-75
2022/03/31 04:27:12;;;;;;;51.27;27.37;;;7.80;70.60;;;;;;4993997;28;20794;-75
2022/03/31 04:29:38;;;;;;;50.87;26.80;;;7.70;70.10;;;;;;4994686;28;20848;-76
2022/03/31 04:32:04;;;;;;;46.60;27.20;;;7.60;72.70;;;;;;4994002;28;20877;-76
2022/03/31 04:34:30;;;;;;;47.30;28.23;;;7.70;71.50;;;;;;4994178;28;20402;-75
2022/03/31 04:36:55;;;;;;;52.40;28.20;;;7.60;72.30;;;;;;4976222;28;20391;-76
2022/03/31 04:39:21;;;;;;;44.58;26.75;;;7.50;74.40;;;;;;4993912;28;20389;-76
2022/03/31 04:41:46;;;;;;;47.47;27.38;;;7.60;73.00;;;;;;4992531;28;20393;-75
2022/03/31 04:44:12;;;;;;;47.00;26.85;;;7.60;74.30;;;;;;4975651;28;20387;-76
2022/03/31 04:46:38;;;;;;;51.15;27.52;;;7.60;73.90;;;;;;4992994;28;20401;-75
2022/03/31 04:49:04;;;;;;;50.08;27.42;;;7.60;73.20;;;;;;4992769;28;20398;-76
2022/03/31 04:51:30;;;;;;;49.58;28.25;;;7.50;75.50;;;;;;4992467;28;20413;-76
2022/03/31 04:53:56;;;;;;;47.70;28.50;;;7.50;76.50;;;;;;4993003;28;20746;-76
2022/03/31 04:56:21;;;;;;;49.77;28.80;;;7.50;75.60;;;;;;4993565;28;20953;-75
2022/03/31 04:58:47;;;;;;;57.23;30.07;;;7.40;76.50;;;;;;4975193;28;20425;-76
2022/03/31 05:01:13;;;;;;;57.07;28.73;;;7.40;75.80;;;;;;4992055;28;20383;-76
2022/03/31 05:03:39;;;;;;;54.83;30.48;;;7.30;78.00;;;;;;4992446;28;20386;-76
2022/03/31 05:06:05;;;;;;;52.97;27.73;;;7.20;76.00;;;;;;4992730;28;20382;-76
2022/03/31 05:08:31;;;;;;;52.63;29.02;;;7.30;75.00;;;;;;4992219;28;20440;-75
2022/03/31 05:10:56;;;;;;;44.30;26.20;;;7.40;71.10;;;;;;4992175;28;20470;-76
2022/03/31 05:13:22;;;;;;;49.17;27.60;;;7.40;71.50;;;;;;4992377;28;20414;-76
2022/03/31 05:15:47;;;;;;;47.33;27.20;;;7.40;70.60;;;;;;4991572;28;20386;-76
2022/03/31 05:18:13;;;;;;;46.87;26.33;;;7.10;74.30;;;;;;4993296;28;20383;-75
2022/03/31 05:20:39;;;;;;;47.20;27.10;;;7.30;72.70;;;;;;4995331;28;20791;-76
2022/03/31 05:23:05;;;;;;;44.88;25.10;;;7.30;71.70;;;;;;4977817;28;20442;-75
2022/03/31 05:25:31;;;;;;;45.67;26.60;;;7.30;69.30;;;;;;4992450;28;20390;-76
2022/03/31 05:27:58;;;;;;;44.70;25.33;;;7.20;71.10;;;;;;4994237;28;20433;-76
2022/03/31 05:30:24;;;;;;;43.88;25.40;;;7.20;72.30;;;;;;4993100;28;20481;-76
2022/03/31 05:32:52;;;;;;;49.58;25.90;;;7.30;70.30;;;;;;4975876;28;20826;-76
2022/03/31 05:35:18;;;;;;;47.85;26.90;;;7.10;70.10;;;;;;4996612;28;20449;-75
2022/03/31 05:37:44;;;;;;;52.60;27.88;;;7.00;72.70;;;;;;4999492;28;20447;-75
2022/03/31 05:40:12;;;;;;;47.67;27.63;;;7.00;74.50;;;;;;4987228;28;20398;-76
2022/03/31 05:42:38;;;;;;;45.45;24.90;;;7.00;77.20;;;;;;4985459;28;20884;-75
2022/03/31 05:45:05;;;;;;;45.65;25.23;;;7.30;73.30;;;;;;5005352;28;20410;-75
2022/03/31 05:47:30;;;;;;;46.47;26.33;;;7.40;71.40;;;;;;5002535;28;20449;-75
2022/03/31 05:49:56;;;;;;;46.53;26.60;;;7.40;71.60;;;;;;5002023;28;20783;-75
2022/03/31 05:52:22;;;;;;;47.93;27.10;;;7.40;71.80;;;;;;4996996;28;20417;-76
2022/03/31 05:54:48;;;;;;;51.78;28.40;;;7.10;74.20;;;;;;4999831;28;20405;-75
2022/03/31 05:57:14;;;;;;;54.23;27.37;;;7.10;77.00;;;;;;4982499;28;20394;-75
2022/03/31 05:59:40;;;;;;;45.92;26.00;;;7.10;78.30;;;;;;4993350;28;20394;-76
2022/03/31 06:02:07;;;;;;;45.40;24.00;;;7.30;73.10;;;;;;4974689;28;20394;-75
2022/03/31 06:04:32;;;;;;;42.75;24.70;;;7.50;68.60;;;;;;4993322;28;20456;-76
2022/03/31 06:06:58;;;;;;;46.00;26.40;;;7.50;70.80;;;;;;4991949;28;20866;-76
2022/03/31 06:09:23;;;;;;;51.90;27.33;;;7.50;71.00;;;;;;4974242;28;20887;-76
2022/03/31 06:11:49;;;;;;;56.13;30.53;;;7.50;71.80;;;;;;4991522;28;20398;-75
2022/03/31 06:14:14;;;;;;;48.97;25.93;;;7.40;72.40;;;;;;4991912;28;20402;-76
2022/03/31 06:16:40;;;;;;;47.40;27.20;;;7.30;72.20;;;;;;4974685;28;20394;-75
2022/03/31 06:19:08;;;;;;;47.13;24.70;;;7.40;70.50;;;;;;4992135;28;20886;-75
2022/03/31 06:21:34;;;;;;;47.90;25.48;;;7.40;70.70;;;;;;4974835;28;20881;-75
2022/03/31 06:24:00;;;;;;;46.80;25.88;;;7.40;70.60;;;;;;4991827;28;20854;-75
2022/03/31 06:26:26;;;;;;;46.45;25.25;;;7.50;70.20;;;;;;4992267;28;20474;-75
2022/03/31 06:28:51;;;;;;;46.57;26.30;;;7.50;68.60;;;;;;4994986;28;20407;-75
2022/03/31 06:31:17;;;;;;;46.55;26.95;;;7.40;70.80;;;;;;4995160;28;20386;-76
2022/03/31 06:33:43;;;;;;;40.50;24.00;;;7.50;73.00;;;;;;4995445;28;20418;-76
2022/03/31 06:36:08;;;;;;;48.08;25.83;;;7.60;72.10;;;;;;4995613;28;20390;-75
2022/03/31 06:38:34;;;;;;;45.85;24.60;;;7.80;70.90;;;;;;4978693;28;20733;-76
2022/03/31 06:41:14;;;;;;;44.22;25.75;;;8.00;64.50;;;;;;4996788;28;20386;-73
2022/03/31 06:43:41;;;;;;;42.80;24.70;;;7.90;64.90;;;;;;4998598;28;20394;-75
2022/03/31 06:46:08;;;;;;;41.30;24.08;;;8.00;63.00;;;;;;4983325;28;20410;-74
2022/03/31 06:48:36;;;;;;;41.00;24.80;;;8.00;63.10;;;;;;4999995;28;20387;-76
2022/03/31 06:51:04;;;;;;;40.55;23.20;;;7.80;64.20;;;;;;4999589;28;20413;-76
2022/03/31 06:53:29;;;;;;;41.45;23.38;;;7.90;66.70;;;;;;5001745;28;20413;-76
2022/03/31 06:55:55;;;;;;;43.97;24.93;;;8.00;64.50;;;;;;5006953;28;20394;-76
2022/03/31 06:58:27;;;;;;;51.60;24.70;;;7.90;63.80;;;;;;4999734;28;20391;-76
2022/03/31 07:00:53;;;;;;;43.08;23.95;;;7.90;63.00;;;;;;4999311;28;20522;-74
2022/03/31 07:03:18;;;;;;;37.75;22.40;;;7.90;61.70;;;;;;4988685;28;20426;-76
2022/03/31 07:05:44;;;;;;;39.13;21.35;;;8.10;58.40;;;;;;5006041;28;20435;-75
2022/03/31 07:08:10;;;;;;;38.53;23.60;;;8.50;55.30;;;;;;5004385;28;20399;-75
2022/03/31 07:10:36;;;;;;;40.40;22.92;;;8.20;55.70;;;;;;5003817;28;20493;-76
2022/03/31 07:13:02;;;;;;;41.72;23.48;;;8.00;59.00;;;;;;5003766;28;20961;-76
2022/03/31 07:15:28;;;;;;;41.30;23.13;;;7.90;63.60;;;;;;5001260;28;20378;-76
2022/03/31 07:17:55;;;;;;;41.50;23.02;;;7.80;61.70;;;;;;4999072;28;20395;-76
2022/03/31 07:20:24;;;;;;;40.55;23.77;;;8.10;62.70;;;;;;4998697;28;20387;-76
2022/03/31 07:22:50;;;;;;;40.95;22.77;;;8.10;62.40;;;;;;4981159;28;20406;-77
2022/03/31 07:25:17;;;;;;;43.00;24.40;;;8.10;61.00;;;;;;4998646;28;20487;-76
2022/03/31 07:27:44;;;;;;;39.63;24.17;;;8.20;63.00;;;;;;4995253;28;20401;-75
2022/03/31 07:30:14;;;;;;;46.38;24.48;;;8.30;61.70;;;;;;4994564;28;20394;-76
2022/03/31 07:32:51;;;;;;;39.50;23.75;;;8.50;59.90;;;;;;4976646;28;20450;-76
2022/03/31 07:35:17;;;;;;;41.60;24.52;;;8.50;58.30;;;;;;4994735;28;20473;-76
2022/03/31 07:37:43;;;;;;;44.60;23.40;;;8.70;56.90;;;;;;4976700;28;20390;-76
2022/03/31 07:40:09;;;;;;;38.13;23.92;;;8.80;53.70;;;;;;4994855;28;20393;-75
2022/03/31 07:42:34;;;;;;;39.88;24.08;;;8.80;56.50;;;;;;4990322;28;20386;-75
2022/03/31 07:45:00;;;;;;;39.90;23.57;;;8.70;59.30;;;;;;5005712;28;20392;-75
2022/03/31 07:47:27;;;;;;;46.40;25.70;;;8.50;59.90;;;;;;5003885;28;20402;-75
2022/03/31 07:49:53;;;;;;;46.05;25.42;;;8.40;62.00;;;;;;5004452;28;20394;-76
2022/03/31 07:52:21;;;;;;;47.90;26.25;;;8.40;61.80;;;;;;5003867;28;20402;-75
2022/03/31 07:54:50;;;;;;;41.53;24.00;;;8.20;65.20;;;;;;5002211;28;20394;-75
2022/03/31 07:57:16;;;;;;;41.47;24.10;;;8.40;64.50;;;;;;5005874;28;20421;-76
2022/03/31 07:59:41;;;;;;;43.10;24.85;;;8.70;57.80;;;;;;5006587;28;20374;-76
2022/03/31 08:02:08;;;;;;;40.83;23.50;;;8.60;61.40;;;;;;5003371;28;20794;-75
2022/03/31 08:04:34;;;;;;;43.10;25.00;;;8.60;59.20;;;;;;5005883;28;20759;-74
2022/03/31 08:06:59;;;;;;;42.22;23.80;;;8.60;61.20;;;;;;5006096;28;20394;-76
2022/03/31 08:09:26;;;;;;;44.13;25.65;;;8.60;60.10;;;;;;5003486;28;20406;-75
2022/03/31 08:11:51;;;;;;;42.63;23.70;;;8.90;57.80;;;;;;5000153;28;20510;-76
2022/03/31 08:14:21;;;;;;;44.90;24.15;;;9.10;55.40;;;;;;4983241;28;20425;-76
2022/03/31 08:16:48;;;;;;;37.77;22.40;;;9.20;53.40;;;;;;5010608;28;20429;-73
2022/03/31 08:19:15;;;;;;;47.50;24.73;;;9.30;52.40;;;;;;5009101;28;20398;-75
2022/03/31 08:21:44;;;;;;;39.30;22.58;;;9.30;52.90;;;;;;5002476;28;20764;-75
2022/03/31 08:24:11;;;;;;;47.60;24.30;;;9.60;51.70;;;;;;5007504;28;20386;-74
2022/03/31 08:26:40;;;;;;;41.17;23.48;;;10.00;49.80;;;;;;5005751;28;20382;-75
2022/03/31 08:29:10;;;;;;;41.53;22.37;;;9.80;50.10;;;;;;5007636;28;20468;-74
2022/03/31 08:31:36;;;;;;;37.53;23.13;;;10.00;48.30;;;;;;5002976;28;20768;-75
2022/03/31 08:34:02;;;;;;;34.40;20.50;;;10.30;45.50;;;;;;5003398;28;20462;-75
2022/03/31 08:36:29;;;;;;;40.22;22.15;;;10.40;44.20;;;;;;5008652;28;20386;-75
2022/03/31 08:38:54;;;;;;;38.88;22.77;;;10.30;41.90;;;;;;5006674;28;20395;-75
2022/03/31 08:41:23;;;;;;;40.60;21.70;;;9.70;47.40;;;;;;4998763;28;20406;-76
2022/03/31 08:43:49;;;;;;;38.45;23.17;;;9.80;47.40;;;;;;4994881;28;20394;-75
2022/03/31 08:46:16;;;;;;;38.88;22.40;;;9.90;44.80;;;;;;4995354;28;20413;-77
2022/03/31 08:48:42;;;;;;;40.15;22.58;;;9.90;47.60;;;;;;4979136;28;20453;-75
2022/03/31 08:51:09;;;;;;;32.47;20.63;;;9.70;51.50;;;;;;5003143;28;20403;-76
2022/03/31 08:53:36;;;;;;;34.58;20.88;;;9.90;45.80;;;;;;5002016;28;20466;-76
2022/03/31 08:56:03;;;;;;;40.53;20.55;;;9.90;46.50;;;;;;5001741;28;20401;-76
2022/03/31 08:58:29;;;;;;;36.58;21.52;;;9.80;44.80;;;;;;4984165;28;20466;-76
2022/03/31 09:00:55;;;;;;;33.90;19.80;;;9.50;49.20;;;;;;4985619;28;20429;-75
2022/03/31 09:03:21;;;;;;;33.25;19.45;;;9.80;44.40;;;;;;5003507;28;20441;-75
2022/03/31 09:05:52;;;;;;;33.95;19.73;;;9.80;43.80;;;;;;5003243;28;20394;-75
2022/03/31 09:08:18;;;;;;;36.13;20.00;;;9.80;46.10;;;;;;5001612;28;20433;-75
2022/03/31 09:10:54;;;;;;;38.03;21.38;;;9.60;46.60;;;;;;5002626;28;20394;-75
2022/03/31 09:13:31;;;;;;;37.25;20.40;;;9.50;49.70;;;;;;5000654;28;20756;-74
2022/03/31 09:16:11;;;;;;;33.63;19.55;;;9.30;52.50;;;;;;5003675;28;20414;-76
2022/03/31 09:18:38;;;;;;;37.40;21.63;;;9.50;49.20;;;;;;5002837;28;20386;-76
2022/03/31 09:21:08;;;;;;;31.67;20.10;;;9.50;49.50;;;;;;5001921;28;20402;-75
2022/03/31 09:23:45;;;;;;;30.60;19.10;;;9.70;48.10;;;;;;5001795;28;20388;-76
2022/03/31 09:26:15;;;;;;;34.10;20.77;;;9.70;46.60;;;;;;5001260;28;20450;-76
2022/03/31 09:28:44;;;;;;;37.20;20.60;;;9.80;48.00;;;;;;4999923;28;20888;-75
2022/03/31 09:31:10;;;;;;;37.35;19.40;;;9.80;45.60;;;;;;4997900;28;20386;-75
2022/03/31 09:33:40;;;;;;;38.13;20.75;;;10.00;42.80;;;;;;4999332;28;20407;-74
2022/03/31 09:36:08;;;;;;;35.45;20.60;;;9.80;46.90;;;;;;5004178;28;20391;-77
2022/03/31 09:38:36;;;;;;;34.20;19.60;;;9.80;48.10;;;;;;5003997;28;20397;-75
2022/03/31 09:41:04;;;;;;;29.63;18.95;;;9.70;44.00;;;;;;5001957;28;20382;-76
2022/03/31 09:43:40;;;;;;;32.33;18.92;;;9.80;46.10;;;;;;4982298;28;20422;-75
2022/03/31 09:46:22;;;;;;;33.78;20.30;;;9.80;44.90;;;;;;5002379;28;20414;-75
2022/03/31 09:48:49;;;;;;;31.25;19.90;;;9.60;45.60;;;;;;4977686;28;20395;-75
2022/03/31 09:51:15;;;;;;;34.33;19.87;;;9.50;44.60;;;;;;4979345;28;20406;-75
2022/03/31 09:53:41;;;;;;;34.67;19.27;;;9.30;45.10;;;;;;4998926;28;20409;-75
2022/03/31 09:56:07;;;;;;;37.13;20.40;;;9.20;47.70;;;;;;4997184;28;20382;-74
2022/03/31 09:58:37;;;;;;;34.80;20.42;;;9.10;47.80;;;;;;4992033;28;20440;-74
2022/03/31 10:01:04;;;;;;;34.55;20.45;;;9.20;46.90;;;;;;4991489;28;20383;-75
2022/03/31 10:03:29;;;;;;;35.28;19.98;;;9.20;47.90;;;;;;4997829;28;20394;-75
2022/03/31 10:05:55;;;;;;;34.90;19.85;;;9.10;48.90;;;;;;4998103;28;20417;-75
2022/03/31 10:08:22;;;;;;;34.17;19.90;;;9.10;49.60;;;;;;4998997;28;20434;-74
2022/03/31 10:10:48;;;;;;;35.63;20.88;;;9.10;49.60;;;;;;4998563;28;20394;-75
2022/03/31 10:13:26;;;;;;;36.75;20.30;;;9.20;48.10;;;;;;4998013;28;20464;-76
2022/03/31 10:16:01;;;;;;;33.03;20.73;;;9.00;49.20;;;;;;4980624;28;20413;-74
2022/03/31 10:18:26;;;;;;;37.00;20.27;;;9.00;49.70;;;;;;4998466;28;20517;-74
2022/03/31 10:20:57;;;;;;;36.58;21.25;;;9.10;50.80;;;;;;4997957;28;20797;-74
2022/03/31 10:26:08;;;;;;;34.78;20.20;;;9.10;53.00;;;;;;4998937;28;20888;-75
2022/03/31 10:28:34;;;;;;;34.53;19.60;;;9.10;52.10;;;;;;4998354;28;20818;-75
2022/03/31 10:31:06;;;;;;;36.67;21.70;;;9.00;52.30;;;;;;4997968;28;20385;-75
2022/03/31 10:33:37;;;;;;;42.42;24.27;;;8.80;55.40;;;;;;4998370;28;20406;-75
2022/03/31 10:36:10;;;;;;;37.15;22.10;;;8.80;57.70;;;;;;4998387;28;20390;-75
2022/03/31 10:38:37;;;;;;;41.13;23.00;;;8.80;58.60;;;;;;4998946;28;20550;-75
2022/03/31 10:41:09;;;;;;;37.33;22.00;;;8.70;61.50;;;;;;4998528;28;20747;-76
2022/03/31 10:43:39;;;;;;;38.45;22.25;;;8.80;58.00;;;;;;4998919;28;20465;-75
2022/03/31 10:46:16;;;;;;;34.17;19.67;;;8.80;57.80;;;;;;4998477;28;20441;-75
2022/03/31 10:48:52;;;;;;;35.05;21.55;;;8.90;54.20;;;;;;4998789;28;20382;-75
2022/03/31 10:51:18;;;;;;;37.65;21.42;;;8.80;53.70;;;;;;4997762;28;20395;-75
2022/03/31 10:53:50;;;;;;;32.67;20.23;;;8.90;51.90;;;;;;4998030;28;20480;-75
2022/03/31 10:56:24;;;;;;;33.28;20.52;;;9.00;50.70;;;;;;4997587;28;20386;-75
2022/03/31 10:58:53;;;;;;;28.00;18.85;;;9.10;52.10;;;;;;4980752;28;21023;-75
2022/03/31 11:01:20;;;;;;;30.57;17.73;;;9.40;46.80;;;;;;4998428;28;20891;-77
2022/03/31 11:03:50;;;;;;;26.08;15.15;;;9.90;39.90;;;;;;4998121;28;20386;-76
2022/03/31 11:06:17;;;;;;;25.40;16.20;;;10.30;36.20;;;;;;4998489;28;20879;-76
2022/03/31 11:08:48;;;;;;;27.80;17.60;;;10.40;32.60;;;;;;4998440;28;20811;-75
2022/03/31 11:11:25;;;;;;;30.58;18.15;;;10.00;35.60;;;;;;4998298;28;20393;-75
2022/03/31 11:13:52;;;;;;;28.70;17.80;;;9.90;38.60;;;;;;4978882;28;20421;-75
2022/03/31 11:16:18;;;;;;;26.20;16.70;;;10.20;38.90;;;;;;4995933;28;20470;-75
2022/03/31 11:18:57;;;;;;;27.27;16.88;;;10.10;36.40;;;;;;5000157;28;20389;-75
2022/03/31 11:21:24;;;;;;;27.92;17.60;;;10.00;36.40;;;;;;4985690;28;20460;-74
2022/03/31 11:23:50;;;;;;;27.30;17.83;;;10.20;37.10;;;;;;4982043;28;20394;-75
2022/03/31 11:26:26;;;;;;;29.17;18.55;;;10.00;35.70;;;;;;4996802;28;20406;-75
2022/03/31 11:28:53;;;;;;;27.73;16.85;;;9.80;36.70;;;;;;5000452;28;20820;-75
2022/03/31 11:31:20;;;;;;;23.90;16.05;;;9.90;35.80;;;;;;4999552;28;20387;-76
2022/03/31 11:33:46;;;;;;;27.95;16.65;;;9.90;34.90;;;;;;4996923;28;20822;-74
2022/03/31 11:36:12;;;;;;;27.40;16.20;;;10.20;33.70;;;;;;4994450;28;20523;-76
2022/03/31 11:38:38;;;;;;;26.88;17.15;;;10.50;33.90;;;;;;4994245;28;20732;-74
2022/03/31 11:41:04;;;;;;;31.55;18.95;;;10.80;34.00;;;;;;4977125;28;20390;-75
2022/03/31 11:43:32;;;;;;;32.63;19.10;;;10.40;37.00;;;;;;4976673;28;20406;-76
2022/03/31 11:45:57;;;;;;;29.35;17.45;;;10.30;39.20;;;;;;4976874;28;20477;-76
2022/03/31 11:48:40;;;;;;;31.40;18.13;;;10.20;38.60;;;;;;4976780;28;20489;-75
2022/03/31 11:51:07;;;;;;;30.25;18.92;;;9.90;40.40;;;;;;4994308;28;20398;-76
2022/03/31 11:53:39;;;;;;;28.20;17.55;;;9.70;41.80;;;;;;4994276;28;20406;-76
2022/03/31 11:56:17;;;;;;;25.80;16.42;;;9.60;39.60;;;;;;4993755;28;20379;-75
2022/03/31 11:58:48;;;;;;;30.85;17.70;;;9.50;41.20;;;;;;4993824;28;20505;-76
2022/03/31 12:01:16;;;;;;;28.20;18.73;;;9.40;41.20;;;;;;4993499;28;20392;-75
2022/03/31 12:03:42;;;;;;;31.60;18.50;;;9.40;44.10;;;;;;4993682;28;20397;-75
2022/03/31 12:06:08;;;;;;;32.80;18.95;;;9.40;43.90;;;;;;4993681;28;20386;-75
2022/03/31 12:08:34;;;;;;;30.70;19.42;;;9.40;44.20;;;;;;4993711;28;20397;-76
2022/03/31 12:11:01;;;;;;;31.77;20.00;;;9.50;44.30;;;;;;4976127;28;20453;-75
2022/03/31 12:13:28;;;;;;;33.17;19.53;;;9.50;46.50;;;;;;4976073;28;20493;-75
2022/03/31 12:16:09;;;;;;;31.63;20.00;;;9.50;45.90;;;;;;4994157;28;20779;-75
2022/03/31 12:18:37;;;;;;;30.17;17.63;;;9.60;48.40;;;;;;4976153;28;20800;-75
2022/03/31 12:21:05;;;;;;;29.08;18.27;;;9.90;44.20;;;;;;4993210;28;20382;-75
2022/03/31 12:23:32;;;;;;;30.02;19.00;;;9.70;46.20;;;;;;4993355;28;20945;-75
2022/03/31 12:25:57;;;;;;;32.35;20.10;;;9.60;49.90;;;;;;4975770;28;20452;-76
2022/03/31 12:28:24;;;;;;;32.65;19.52;;;9.50;50.40;;;;;;4993917;28;20390;-75
2022/03/31 12:30:52;;;;;;;26.05;16.10;;;9.70;46.10;;;;;;4976872;28;20394;-74
2022/03/31 12:33:25;;;;;;;31.15;17.70;;;9.70;43.10;;;;;;4992811;28;20438;-75
2022/03/31 12:36:02;;;;;;;29.05;17.77;;;9.70;45.10;;;;;;4992831;28;20553;-75
2022/03/31 12:38:39;;;;;;;26.15;16.13;;;9.80;45.50;;;;;;4993444;28;20852;-76
2022/03/31 12:41:26;;;;;;;31.15;17.33;;;9.60;40.40;;;;;;4992670;28;20391;-75